Amunt
Inicio > meteoXarxa
Fes-te'n soci

METEOXARXA

la Serra d′en Galceran
Ubicació
Comarca la Plana Alta
Altitud (msnm) 748
Posició geogràfica 40° 16' 10.38" N, 00° 1' 7.77" W
Model Davis Vantage Pro
Presa de dades
Font de les dades Universitat Jaume I de Castelló
Estadístiques. Resum
Data Temperatura (ºC) Humitat (%) Pressió (hPa) Vent (km/h) Precipit. (mm)
Mínima Mitjana Màxima Mínima Mitjana Màxima Mínima Mitjana Màxima Predom. Mitjana Ràfega màxima Total Dies de pluja
Mínima Mitjana Màxima Mínima Mitjana Màxima
Últimes dades diàries
16-01-2017 5,1     7,3     10,1 N 31,4 93,3 0,0  
15-01-2017 2,6     5,1     7,3 N 25,4 80,5 0,0  
14-01-2017 2,1     3,2     5,3 N 24,6 83,7 0,0  
13-01-2017 2,4     6,5     12,8 N 33,2 103,0 0,0  
12-01-2017 9,9     13,1     16,1 N 9,8 64,4 0,0  
11-01-2017 5,8     7,4     11,0 N 15,6 98,2 0,0  
10-01-2017 6,0     8,0     9,4 N 34,1 115,9 0,0  
09-01-2017 4,9     6,6     9,7 N 9,7 40,2 0,0  
08-01-2017 5,7     9,1     12,8 N 9,5 53,1 0,0  
07-01-2017 4,1     5,9     8,7 N 4,0 16,1 0,0  
06-01-2017 4,6     5,9     8,4 N 4,7 20,9 0,0  
05-01-2017 5,0     8,6     13,0 N 16,9 70,8 0,0  
04-01-2017 8,5     10,8     13,7 N 17,7 69,2 0,3  
03-01-2017 10,3     12,2     14,1 N 5,3 37,0 0,0  
02-01-2017 3,4     6,0     11,5 N 4,2 20,9 0,0  
01-01-2017 5,1     6,2     8,8 N 7,9 24,1 0,0  
31-12-2016 4,6     6,3     9,1 N 4,5 22,5 0,0  
30-12-2016 4,6     6,3     9,3 N 3,4 17,7 0,0  
29-12-2016 6,8     12,9     16,6 N 2,1 14,5 0,0  
28-12-2016 7,2     9,7     12,1 N 3,2 19,3 0,0  
27-12-2016 9,0     10,8     12,5 N 2,1 19,3 0,0  
26-12-2016 9,9     13,9     17,2 N 1,9 12,9 0,0  
25-12-2016 8,0     12,7     16,6 N 3,2 24,1 0,0  
24-12-2016 8,4     9,8     11,8 N 14,5 45,1 0,0  
23-12-2016 8,4     10,1     12,5 N 9,8 41,8 0,0  
22-12-2016 6,6     9,3     13,1 N 10,6 35,4 0,0  
21-12-2016 4,5     7,1     10,4 N 18,8 57,9 0,0  
20-12-2016 4,6     6,4     9,5 N 24,9 66,0 0,3  
19-12-2016 3,2     4,6     5,8 N 22,0 61,2  
18-12-2016 4,4     5,4     6,0 N 15,4 59,5  
17-12-2016 5,3     7,0     8,5 N 10,6 54,7  
16-12-2016 6,4     7,6     8,4 N 5,8 37,0  
Dades del mes en curs (actualitzades fins l'últim dia disponible)
01/2017 2,1 5,3 10,3 7,6 5,3 10,8 16,1   15,9 115,9 0,3  
Últimes dades mensuals
11/2016 3,6 8,0 13,5 10,5 7,5 13,1 19,4 11,0 86,9 56,1 11
10/2016 10,2 13,6 17,2 15,7 12,7 18,5 23,3 4,2 51,5 40,8 10
09/2016 11,9 16,6 26,8 19,3 17,7 22,6 33,7 7,3 72,4 32,9 5
08/2016 14,8 17,9 20,1 21,2 20,3 24,9 27,9 5,6 59,5 35,1 5
07/2016 12,8 18,8 23,4 22,2 20,9 25,9 30,8 6,8 67,6 0,9 3
06/2016 10,8 16,0 20,7 19,3 18,5 22,9 26,7 7,9 69,2 1,8 4
03/2016 2,2 5,6 12,2 8,4 5,3 11,6 17,9 15,2 95,0 54,5 12
02/2016 -0,4 5,9 13,2 8,7 5,0 12,2 18,9 16,1 115,9 9,1 8
01/2016 1,3 6,6 11,5 9,3 5,0 12,2 17,1 11,6 95,0 4,0 6
12/2015 5,8 8,9 14,6 11,0 9,6 13,5 17,7 4,0 37,0 0,9 3
11/2015 0,9 10,6 14,8 12,9 6,4 15,4 21,4 11,5 83,7 142,8 3
10/2015 7,2 12,2 19,2 14,3 12,7 17,2 24,4 7,5 62,8 30,1 16
09/2015 11,1 14,9 18,9 17,5 15,8 20,6 24,8 7,4 75,6 59,7 14
Dades de l'any en curs (actualitzades fins l'últim dia disponible)
2017 2,1 5,3 10,3 7,6 5,3 10,8 16,1   15,9 115,9 0,3  
Últimes dades anuals